sensor_id;sensor_type;location;lat;lon;timestamp;P1;durP1;ratioP1;P2;durP2;ratioP2
4575;SDS011;2300;51.874;8.430;2024-02-15T00:00:39;22.43;;;16.03;;
4575;SDS011;2300;51.874;8.430;2024-02-15T00:03:09;24.50;;;16.47;;
4575;SDS011;2300;51.874;8.430;2024-02-15T00:05:38;21.50;;;15.97;;
4575;SDS011;2300;51.874;8.430;2024-02-15T00:08:05;23.90;;;16.67;;
4575;SDS011;2300;51.874;8.430;2024-02-15T00:10:32;22.40;;;16.37;;
4575;SDS011;2300;51.874;8.430;2024-02-15T00:12:59;23.07;;;16.10;;
4575;SDS011;2300;51.874;8.430;2024-02-15T00:15:25;22.57;;;16.40;;
4575;SDS011;2300;51.874;8.430;2024-02-15T00:17:52;24.63;;;16.93;;
4575;SDS011;2300;51.874;8.430;2024-02-15T00:20:20;22.40;;;16.50;;
4575;SDS011;2300;51.874;8.430;2024-02-15T00:22:46;23.13;;;15.93;;
4575;SDS011;2300;51.874;8.430;2024-02-15T00:25:14;20.20;;;15.60;;
4575;SDS011;2300;51.874;8.430;2024-02-15T00:27:41;23.60;;;16.47;;
4575;SDS011;2300;51.874;8.430;2024-02-15T00:30:08;22.20;;;16.13;;
4575;SDS011;2300;51.874;8.430;2024-02-15T00:32:35;22.80;;;16.17;;
4575;SDS011;2300;51.874;8.430;2024-02-15T00:35:03;22.47;;;16.17;;
4575;SDS011;2300;51.874;8.430;2024-02-15T00:37:34;22.80;;;16.10;;
4575;SDS011;2300;51.874;8.430;2024-02-15T00:40:00;24.20;;;16.33;;
4575;SDS011;2300;51.874;8.430;2024-02-15T00:42:28;22.23;;;15.53;;
4575;SDS011;2300;51.874;8.430;2024-02-15T00:44:56;25.40;;;16.70;;
4575;SDS011;2300;51.874;8.430;2024-02-15T00:47:23;22.23;;;15.33;;
4575;SDS011;2300;51.874;8.430;2024-02-15T00:49:49;22.83;;;16.37;;
4575;SDS011;2300;51.874;8.430;2024-02-15T00:52:16;22.37;;;16.37;;
4575;SDS011;2300;51.874;8.430;2024-02-15T00:54:45;22.00;;;15.80;;
4575;SDS011;2300;51.874;8.430;2024-02-15T00:57:11;21.90;;;15.23;;
4575;SDS011;2300;51.874;8.430;2024-02-15T00:59:38;21.13;;;15.13;;
4575;SDS011;2300;51.874;8.430;2024-02-15T01:02:04;22.50;;;16.30;;
4575;SDS011;2300;51.874;8.430;2024-02-15T01:04:31;21.63;;;15.53;;
4575;SDS011;2300;51.874;8.430;2024-02-15T01:06:57;24.57;;;15.07;;
4575;SDS011;2300;51.874;8.430;2024-02-15T01:09:24;23.03;;;15.67;;
4575;SDS011;2300;51.874;8.430;2024-02-15T01:11:52;23.93;;;15.83;;
4575;SDS011;2300;51.874;8.430;2024-02-15T01:14:19;19.90;;;14.57;;
4575;SDS011;2300;51.874;8.430;2024-02-15T01:16:46;22.80;;;15.73;;
4575;SDS011;2300;51.874;8.430;2024-02-15T01:19:13;21.77;;;14.97;;
4575;SDS011;2300;51.874;8.430;2024-02-15T01:21:39;22.13;;;15.67;;
4575;SDS011;2300;51.874;8.430;2024-02-15T01:24:06;22.43;;;15.03;;
4575;SDS011;2300;51.874;8.430;2024-02-15T01:26:32;21.07;;;15.07;;
4575;SDS011;2300;51.874;8.430;2024-02-15T01:29:01;23.10;;;15.23;;
4575;SDS011;2300;51.874;8.430;2024-02-15T01:31:28;21.00;;;15.43;;
4575;SDS011;2300;51.874;8.430;2024-02-15T01:33:54;22.10;;;15.03;;
4575;SDS011;2300;51.874;8.430;2024-02-15T01:36:21;21.97;;;15.53;;
4575;SDS011;2300;51.874;8.430;2024-02-15T01:38:47;22.87;;;15.17;;
4575;SDS011;2300;51.874;8.430;2024-02-15T01:41:14;22.53;;;15.57;;
4575;SDS011;2300;51.874;8.430;2024-02-15T01:43:43;23.27;;;15.47;;
4575;SDS011;2300;51.874;8.430;2024-02-15T01:46:11;21.53;;;14.77;;
4575;SDS011;2300;51.874;8.430;2024-02-15T01:48:39;21.77;;;15.33;;
4575;SDS011;2300;51.874;8.430;2024-02-15T01:51:06;21.50;;;15.27;;
4575;SDS011;2300;51.874;8.430;2024-02-15T01:53:33;21.63;;;14.70;;
4575;SDS011;2300;51.874;8.430;2024-02-15T01:56:00;22.27;;;14.63;;
4575;SDS011;2300;51.874;8.430;2024-02-15T01:58:27;21.03;;;14.63;;
4575;SDS011;2300;51.874;8.430;2024-02-15T02:00:56;21.20;;;14.97;;
4575;SDS011;2300;51.874;8.430;2024-02-15T02:03:24;20.87;;;13.97;;
4575;SDS011;2300;51.874;8.430;2024-02-15T02:05:50;22.17;;;15.03;;
4575;SDS011;2300;51.874;8.430;2024-02-15T02:08:17;22.60;;;16.00;;
4575;SDS011;2300;51.874;8.430;2024-02-15T02:10:43;21.47;;;15.33;;
4575;SDS011;2300;51.874;8.430;2024-02-15T02:13:10;22.57;;;16.17;;
4575;SDS011;2300;51.874;8.430;2024-02-15T02:15:37;26.30;;;16.67;;
4575;SDS011;2300;51.874;8.430;2024-02-15T02:18:04;21.70;;;16.37;;
4575;SDS011;2300;51.874;8.430;2024-02-15T02:20:34;23.50;;;16.83;;
4575;SDS011;2300;51.874;8.430;2024-02-15T02:23:03;26.67;;;17.80;;
4575;SDS011;2300;51.874;8.430;2024-02-15T02:25:34;24.33;;;17.40;;
4575;SDS011;2300;51.874;8.430;2024-02-15T02:28:01;26.80;;;18.63;;
4575;SDS011;2300;51.874;8.430;2024-02-15T02:30:27;27.90;;;19.40;;
4575;SDS011;2300;51.874;8.430;2024-02-15T02:32:55;29.23;;;18.97;;
4575;SDS011;2300;51.874;8.430;2024-02-15T02:35:21;28.33;;;19.73;;
4575;SDS011;2300;51.874;8.430;2024-02-15T02:37:48;28.43;;;19.60;;
4575;SDS011;2300;51.874;8.430;2024-02-15T02:40:15;31.80;;;20.30;;
4575;SDS011;2300;51.874;8.430;2024-02-15T02:42:53;28.87;;;20.03;;
4575;SDS011;2300;51.874;8.430;2024-02-15T02:45:21;30.37;;;19.50;;
4575;SDS011;2300;51.874;8.430;2024-02-15T02:47:48;29.80;;;19.77;;
4575;SDS011;2300;51.874;8.430;2024-02-15T02:50:14;26.80;;;18.83;;
4575;SDS011;2300;51.874;8.430;2024-02-15T02:52:41;30.43;;;19.80;;
4575;SDS011;2300;51.874;8.430;2024-02-15T02:55:08;29.20;;;19.77;;
4575;SDS011;2300;51.874;8.430;2024-02-15T02:57:35;31.50;;;21.17;;
4575;SDS011;2300;51.874;8.430;2024-02-15T03:00:04;33.30;;;20.83;;
4575;SDS011;2300;51.874;8.430;2024-02-15T03:02:33;34.70;;;21.20;;
4575;SDS011;2300;51.874;8.430;2024-02-15T03:05:00;30.30;;;20.40;;
4575;SDS011;2300;51.874;8.430;2024-02-15T03:07:27;32.80;;;21.80;;
4575;SDS011;2300;51.874;8.430;2024-02-15T03:09:54;35.33;;;21.70;;
4575;SDS011;2300;51.874;8.430;2024-02-15T03:12:20;32.63;;;22.27;;
4575;SDS011;2300;51.874;8.430;2024-02-15T03:14:47;33.33;;;21.97;;
4575;SDS011;2300;51.874;8.430;2024-02-15T03:17:15;37.30;;;21.87;;
4575;SDS011;2300;51.874;8.430;2024-02-15T03:19:41;33.67;;;22.13;;
4575;SDS011;2300;51.874;8.430;2024-02-15T03:22:08;33.40;;;22.67;;
4575;SDS011;2300;51.874;8.430;2024-02-15T03:24:34;32.70;;;22.73;;
4575;SDS011;2300;51.874;8.430;2024-02-15T03:27:00;36.87;;;23.17;;
4575;SDS011;2300;51.874;8.430;2024-02-15T03:29:27;35.57;;;23.13;;
4575;SDS011;2300;51.874;8.430;2024-02-15T03:31:54;34.10;;;22.13;;
4575;SDS011;2300;51.874;8.430;2024-02-15T03:34:22;34.00;;;22.77;;
4575;SDS011;2300;51.874;8.430;2024-02-15T03:36:49;33.87;;;21.97;;
4575;SDS011;2300;51.874;8.430;2024-02-15T03:39:18;37.07;;;22.90;;
4575;SDS011;2300;51.874;8.430;2024-02-15T03:41:45;37.07;;;23.50;;
4575;SDS011;2300;51.874;8.430;2024-02-15T03:44:12;36.10;;;23.00;;
4575;SDS011;2300;51.874;8.430;2024-02-15T03:46:39;38.03;;;24.40;;
4575;SDS011;2300;51.874;8.430;2024-02-15T03:49:05;37.00;;;22.67;;
4575;SDS011;2300;51.874;8.430;2024-02-15T03:51:34;35.47;;;22.60;;
4575;SDS011;2300;51.874;8.430;2024-02-15T03:54:00;34.73;;;22.07;;
4575;SDS011;2300;51.874;8.430;2024-02-15T03:56:29;35.33;;;23.70;;
4575;SDS011;2300;51.874;8.430;2024-02-15T03:58:57;38.17;;;22.57;;
4575;SDS011;2300;51.874;8.430;2024-02-15T04:01:24;39.00;;;23.63;;
4575;SDS011;2300;51.874;8.430;2024-02-15T04:03:52;34.60;;;20.83;;
4575;SDS011;2300;51.874;8.430;2024-02-15T04:06:18;34.57;;;22.40;;
4575;SDS011;2300;51.874;8.430;2024-02-15T04:08:46;33.97;;;22.00;;
4575;SDS011;2300;51.874;8.430;2024-02-15T04:11:14;32.70;;;21.27;;
4575;SDS011;2300;51.874;8.430;2024-02-15T04:13:41;36.47;;;21.60;;
4575;SDS011;2300;51.874;8.430;2024-02-15T04:16:08;35.43;;;20.20;;
4575;SDS011;2300;51.874;8.430;2024-02-15T04:18:35;32.13;;;20.63;;
4575;SDS011;2300;51.874;8.430;2024-02-15T04:21:03;31.17;;;18.87;;
4575;SDS011;2300;51.874;8.430;2024-02-15T04:23:31;29.93;;;19.80;;
4575;SDS011;2300;51.874;8.430;2024-02-15T04:25:59;30.33;;;19.70;;
4575;SDS011;2300;51.874;8.430;2024-02-15T04:28:26;28.70;;;19.33;;
4575;SDS011;2300;51.874;8.430;2024-02-15T04:30:52;29.10;;;18.63;;
4575;SDS011;2300;51.874;8.430;2024-02-15T04:33:19;30.43;;;19.97;;
4575;SDS011;2300;51.874;8.430;2024-02-15T04:35:45;29.07;;;19.97;;
4575;SDS011;2300;51.874;8.430;2024-02-15T04:38:14;33.43;;;19.30;;
4575;SDS011;2300;51.874;8.430;2024-02-15T04:40:40;29.13;;;17.33;;
4575;SDS011;2300;51.874;8.430;2024-02-15T04:43:08;26.90;;;18.23;;
4575;SDS011;2300;51.874;8.430;2024-02-15T04:45:34;32.90;;;19.90;;
4575;SDS011;2300;51.874;8.430;2024-02-15T04:48:01;27.90;;;18.83;;
4575;SDS011;2300;51.874;8.430;2024-02-15T04:50:28;27.43;;;17.30;;
4575;SDS011;2300;51.874;8.430;2024-02-15T04:52:55;29.33;;;16.83;;
4575;SDS011;2300;51.874;8.430;2024-02-15T04:55:22;25.20;;;16.90;;
4575;SDS011;2300;51.874;8.430;2024-02-15T04:57:48;29.60;;;17.70;;
4575;SDS011;2300;51.874;8.430;2024-02-15T05:00:21;27.03;;;17.73;;
4575;SDS011;2300;51.874;8.430;2024-02-15T05:02:48;25.77;;;17.80;;
4575;SDS011;2300;51.874;8.430;2024-02-15T05:05:14;25.70;;;16.67;;
4575;SDS011;2300;51.874;8.430;2024-02-15T05:07:41;26.63;;;18.07;;
4575;SDS011;2300;51.874;8.430;2024-02-15T05:10:08;24.47;;;16.50;;
4575;SDS011;2300;51.874;8.430;2024-02-15T05:12:35;23.27;;;16.10;;
4575;SDS011;2300;51.874;8.430;2024-02-15T05:15:03;22.17;;;15.80;;
4575;SDS011;2300;51.874;8.430;2024-02-15T05:17:36;28.63;;;17.13;;
4575;SDS011;2300;51.874;8.430;2024-02-15T05:20:06;23.80;;;16.20;;
4575;SDS011;2300;51.874;8.430;2024-02-15T05:22:36;22.20;;;15.10;;
4575;SDS011;2300;51.874;8.430;2024-02-15T05:25:04;23.73;;;15.00;;
4575;SDS011;2300;51.874;8.430;2024-02-15T05:27:30;21.47;;;13.33;;
4575;SDS011;2300;51.874;8.430;2024-02-15T05:29:57;19.10;;;13.87;;
4575;SDS011;2300;51.874;8.430;2024-02-15T05:32:23;20.30;;;13.40;;
4575;SDS011;2300;51.874;8.430;2024-02-15T05:34:53;19.00;;;13.40;;
4575;SDS011;2300;51.874;8.430;2024-02-15T05:37:20;19.50;;;12.87;;
4575;SDS011;2300;51.874;8.430;2024-02-15T05:39:48;21.37;;;13.33;;
4575;SDS011;2300;51.874;8.430;2024-02-15T05:42:17;16.83;;;12.90;;
4575;SDS011;2300;51.874;8.430;2024-02-15T05:44:44;18.47;;;12.93;;
4575;SDS011;2300;51.874;8.430;2024-02-15T05:47:11;20.77;;;12.70;;
4575;SDS011;2300;51.874;8.430;2024-02-15T05:49:37;15.67;;;12.07;;
4575;SDS011;2300;51.874;8.430;2024-02-15T05:52:05;17.90;;;12.03;;
4575;SDS011;2300;51.874;8.430;2024-02-15T05:54:33;17.83;;;11.03;;
4575;SDS011;2300;51.874;8.430;2024-02-15T05:57:00;17.97;;;11.93;;
4575;SDS011;2300;51.874;8.430;2024-02-15T05:59:26;16.70;;;11.80;;
4575;SDS011;2300;51.874;8.430;2024-02-15T06:01:54;18.43;;;12.20;;
4575;SDS011;2300;51.874;8.430;2024-02-15T06:04:20;19.57;;;11.20;;
4575;SDS011;2300;51.874;8.430;2024-02-15T06:06:48;16.13;;;11.13;;
4575;SDS011;2300;51.874;8.430;2024-02-15T06:09:17;15.97;;;12.07;;
4575;SDS011;2300;51.874;8.430;2024-02-15T06:11:46;15.17;;;10.73;;
4575;SDS011;2300;51.874;8.430;2024-02-15T06:14:14;15.73;;;11.27;;
4575;SDS011;2300;51.874;8.430;2024-02-15T06:16:41;14.50;;;11.27;;
4575;SDS011;2300;51.874;8.430;2024-02-15T06:19:09;15.00;;;11.70;;
4575;SDS011;2300;51.874;8.430;2024-02-15T06:21:36;18.43;;;11.90;;
4575;SDS011;2300;51.874;8.430;2024-02-15T06:24:02;16.53;;;11.37;;
4575;SDS011;2300;51.874;8.430;2024-02-15T06:26:31;19.07;;;12.13;;
4575;SDS011;2300;51.874;8.430;2024-02-15T06:28:59;15.97;;;11.10;;
4575;SDS011;2300;51.874;8.430;2024-02-15T06:31:44;18.50;;;12.53;;
4575;SDS011;2300;51.874;8.430;2024-02-15T06:34:27;18.07;;;11.43;;
4575;SDS011;2300;51.874;8.430;2024-02-15T06:37:22;16.83;;;11.43;;
4575;SDS011;2300;51.874;8.430;2024-02-15T06:40:19;18.47;;;12.63;;
4575;SDS011;2300;51.874;8.430;2024-02-15T06:42:47;21.10;;;13.50;;
4575;SDS011;2300;51.874;8.430;2024-02-15T06:45:13;21.93;;;13.63;;
4575;SDS011;2300;51.874;8.430;2024-02-15T06:47:41;18.80;;;14.40;;
4575;SDS011;2300;51.874;8.430;2024-02-15T06:50:09;20.13;;;14.73;;
4575;SDS011;2300;51.874;8.430;2024-02-15T06:52:36;19.20;;;15.63;;
4575;SDS011;2300;51.874;8.430;2024-02-15T06:55:03;20.77;;;15.30;;
4575;SDS011;2300;51.874;8.430;2024-02-15T06:57:30;21.47;;;15.70;;
4575;SDS011;2300;51.874;8.430;2024-02-15T06:59:58;23.10;;;16.70;;
4575;SDS011;2300;51.874;8.430;2024-02-15T07:02:25;19.70;;;15.47;;
4575;SDS011;2300;51.874;8.430;2024-02-15T07:04:51;22.73;;;17.13;;
4575;SDS011;2300;51.874;8.430;2024-02-15T07:07:18;26.57;;;15.53;;
4575;SDS011;2300;51.874;8.430;2024-02-15T07:09:44;22.60;;;16.67;;
4575;SDS011;2300;51.874;8.430;2024-02-15T07:12:11;19.43;;;15.20;;
4575;SDS011;2300;51.874;8.430;2024-02-15T07:14:37;22.37;;;15.23;;
4575;SDS011;2300;51.874;8.430;2024-02-15T07:17:06;20.97;;;14.43;;
4575;SDS011;2300;51.874;8.430;2024-02-15T07:19:32;19.83;;;13.27;;
4575;SDS011;2300;51.874;8.430;2024-02-15T07:22:01;20.97;;;13.57;;
4575;SDS011;2300;51.874;8.430;2024-02-15T07:24:28;18.17;;;12.87;;
4575;SDS011;2300;51.874;8.430;2024-02-15T07:26:55;16.73;;;12.40;;
4575;SDS011;2300;51.874;8.430;2024-02-15T07:29:21;17.63;;;11.70;;
4575;SDS011;2300;51.874;8.430;2024-02-15T07:31:50;21.53;;;12.60;;
4575;SDS011;2300;51.874;8.430;2024-02-15T07:34:18;20.07;;;11.73;;
4575;SDS011;2300;51.874;8.430;2024-02-15T07:36:44;16.80;;;11.67;;
4575;SDS011;2300;51.874;8.430;2024-02-15T07:39:11;19.60;;;11.67;;
4575;SDS011;2300;51.874;8.430;2024-02-15T07:41:48;17.77;;;11.57;;
4575;SDS011;2300;51.874;8.430;2024-02-15T07:44:14;22.13;;;12.83;;
4575;SDS011;2300;51.874;8.430;2024-02-15T07:46:42;20.63;;;12.50;;
4575;SDS011;2300;51.874;8.430;2024-02-15T07:49:09;20.13;;;12.57;;
4575;SDS011;2300;51.874;8.430;2024-02-15T07:51:37;18.50;;;11.90;;
4575;SDS011;2300;51.874;8.430;2024-02-15T07:54:04;18.47;;;11.47;;
4575;SDS011;2300;51.874;8.430;2024-02-15T07:56:31;18.07;;;12.10;;
4575;SDS011;2300;51.874;8.430;2024-02-15T07:58:57;19.20;;;12.53;;
4575;SDS011;2300;51.874;8.430;2024-02-15T08:01:24;19.57;;;13.10;;
4575;SDS011;2300;51.874;8.430;2024-02-15T08:03:51;17.83;;;12.13;;
4575;SDS011;2300;51.874;8.430;2024-02-15T08:06:18;19.93;;;12.47;;
4575;SDS011;2300;51.874;8.430;2024-02-15T08:08:46;19.13;;;11.70;;
4575;SDS011;2300;51.874;8.430;2024-02-15T08:11:14;20.53;;;11.53;;
4575;SDS011;2300;51.874;8.430;2024-02-15T08:13:44;16.23;;;9.70;;
4575;SDS011;2300;51.874;8.430;2024-02-15T08:16:13;15.03;;;9.30;;
4575;SDS011;2300;51.874;8.430;2024-02-15T08:18:41;16.33;;;9.47;;
4575;SDS011;2300;51.874;8.430;2024-02-15T08:21:08;19.23;;;9.17;;
4575;SDS011;2300;51.874;8.430;2024-02-15T08:23:35;13.93;;;8.37;;
4575;SDS011;2300;51.874;8.430;2024-02-15T08:26:04;14.20;;;7.70;;
4575;SDS011;2300;51.874;8.430;2024-02-15T08:28:30;14.53;;;7.83;;
4575;SDS011;2300;51.874;8.430;2024-02-15T08:30:57;12.87;;;7.40;;
4575;SDS011;2300;51.874;8.430;2024-02-15T08:33:23;12.63;;;6.77;;
4575;SDS011;2300;51.874;8.430;2024-02-15T08:35:53;10.70;;;7.27;;
4575;SDS011;2300;51.874;8.430;2024-02-15T08:38:21;14.40;;;6.63;;
4575;SDS011;2300;51.874;8.430;2024-02-15T08:40:48;8.37;;;5.00;;
4575;SDS011;2300;51.874;8.430;2024-02-15T08:43:16;9.10;;;5.47;;
4575;SDS011;2300;51.874;8.430;2024-02-15T08:45:42;9.77;;;5.47;;
4575;SDS011;2300;51.874;8.430;2024-02-15T08:48:10;9.20;;;5.40;;
4575;SDS011;2300;51.874;8.430;2024-02-15T08:50:36;9.97;;;5.20;;
4575;SDS011;2300;51.874;8.430;2024-02-15T08:53:04;10.70;;;5.00;;
4575;SDS011;2300;51.874;8.430;2024-02-15T08:55:31;7.97;;;4.83;;
4575;SDS011;2300;51.874;8.430;2024-02-15T08:58:00;9.73;;;4.97;;
4575;SDS011;2300;51.874;8.430;2024-02-15T09:00:29;9.67;;;4.67;;
4575;SDS011;2300;51.874;8.430;2024-02-15T09:02:56;8.30;;;4.70;;
4575;SDS011;2300;51.874;8.430;2024-02-15T09:05:22;12.17;;;4.60;;
4575;SDS011;2300;51.874;8.430;2024-02-15T09:07:49;11.00;;;5.27;;
4575;SDS011;2300;51.874;8.430;2024-02-15T09:10:16;11.50;;;5.03;;
4575;SDS011;2300;51.874;8.430;2024-02-15T09:12:44;10.83;;;5.47;;
4575;SDS011;2300;51.874;8.430;2024-02-15T09:15:12;11.40;;;5.60;;
4575;SDS011;2300;51.874;8.430;2024-02-15T09:17:40;10.57;;;5.60;;
4575;SDS011;2300;51.874;8.430;2024-02-15T09:20:09;9.10;;;5.47;;
4575;SDS011;2300;51.874;8.430;2024-02-15T09:22:39;8.83;;;5.33;;
4575;SDS011;2300;51.874;8.430;2024-02-15T09:25:06;9.53;;;4.70;;
4575;SDS011;2300;51.874;8.430;2024-02-15T09:27:34;10.67;;;4.97;;
4575;SDS011;2300;51.874;8.430;2024-02-15T09:30:01;10.60;;;5.23;;
4575;SDS011;2300;51.874;8.430;2024-02-15T09:32:28;9.03;;;4.67;;
4575;SDS011;2300;51.874;8.430;2024-02-15T09:34:56;9.63;;;5.00;;
4575;SDS011;2300;51.874;8.430;2024-02-15T09:37:23;8.13;;;4.73;;
4575;SDS011;2300;51.874;8.430;2024-02-15T09:39:51;9.63;;;4.97;;
4575;SDS011;2300;51.874;8.430;2024-02-15T09:42:19;11.00;;;5.00;;
4575;SDS011;2300;51.874;8.430;2024-02-15T09:44:49;10.00;;;4.53;;
4575;SDS011;2300;51.874;8.430;2024-02-15T09:47:16;11.43;;;4.80;;
4575;SDS011;2300;51.874;8.430;2024-02-15T09:49:44;9.83;;;5.03;;
4575;SDS011;2300;51.874;8.430;2024-02-15T09:52:12;11.13;;;4.60;;
4575;SDS011;2300;51.874;8.430;2024-02-15T09:54:43;7.13;;;4.50;;
4575;SDS011;2300;51.874;8.430;2024-02-15T09:57:11;8.27;;;4.70;;
4575;SDS011;2300;51.874;8.430;2024-02-15T09:59:37;10.70;;;4.73;;
4575;SDS011;2300;51.874;8.430;2024-02-15T10:02:05;7.20;;;4.90;;
4575;SDS011;2300;51.874;8.430;2024-02-15T10:04:35;10.67;;;5.37;;
4575;SDS011;2300;51.874;8.430;2024-02-15T10:07:03;9.93;;;5.10;;
4575;SDS011;2300;51.874;8.430;2024-02-15T10:09:31;10.00;;;5.20;;
4575;SDS011;2300;51.874;8.430;2024-02-15T10:11:59;10.07;;;4.97;;
4575;SDS011;2300;51.874;8.430;2024-02-15T10:14:27;10.47;;;5.50;;
4575;SDS011;2300;51.874;8.430;2024-02-15T10:16:55;11.17;;;5.63;;
4575;SDS011;2300;51.874;8.430;2024-02-15T10:19:22;13.10;;;5.03;;
4575;SDS011;2300;51.874;8.430;2024-02-15T10:21:53;11.23;;;5.57;;
4575;SDS011;2300;51.874;8.430;2024-02-15T10:24:21;11.70;;;5.07;;
4575;SDS011;2300;51.874;8.430;2024-02-15T10:26:50;10.60;;;5.33;;
4575;SDS011;2300;51.874;8.430;2024-02-15T10:29:18;9.53;;;5.40;;
4575;SDS011;2300;51.874;8.430;2024-02-15T10:31:54;11.50;;;5.37;;
4575;SDS011;2300;51.874;8.430;2024-02-15T10:34:23;11.50;;;5.40;;
4575;SDS011;2300;51.874;8.430;2024-02-15T10:36:52;9.13;;;4.77;;
4575;SDS011;2300;51.874;8.430;2024-02-15T10:39:21;10.57;;;5.17;;
4575;SDS011;2300;51.874;8.430;2024-02-15T10:41:50;8.37;;;5.40;;
4575;SDS011;2300;51.874;8.430;2024-02-15T10:44:20;9.47;;;5.03;;
4575;SDS011;2300;51.874;8.430;2024-02-15T10:46:47;10.33;;;5.20;;
4575;SDS011;2300;51.874;8.430;2024-02-15T10:49:16;11.53;;;5.87;;
4575;SDS011;2300;51.874;8.430;2024-02-15T10:51:44;11.40;;;5.80;;
4575;SDS011;2300;51.874;8.430;2024-02-15T10:54:15;12.50;;;5.73;;
4575;SDS011;2300;51.874;8.430;2024-02-15T10:56:55;13.87;;;8.20;;
4575;SDS011;2300;51.874;8.430;2024-02-15T10:59:31;9.57;;;5.87;;
4575;SDS011;2300;51.874;8.430;2024-02-15T11:02:01;10.63;;;5.03;;
4575;SDS011;2300;51.874;8.430;2024-02-15T11:04:40;9.20;;;4.63;;
4575;SDS011;2300;51.874;8.430;2024-02-15T11:07:09;12.40;;;6.10;;
4575;SDS011;2300;51.874;8.430;2024-02-15T11:09:38;10.73;;;4.87;;
4575;SDS011;2300;51.874;8.430;2024-02-15T11:12:06;8.43;;;5.10;;
4575;SDS011;2300;51.874;8.430;2024-02-15T11:14:33;8.80;;;5.17;;
4575;SDS011;2300;51.874;8.430;2024-02-15T11:17:01;8.67;;;5.03;;
4575;SDS011;2300;51.874;8.430;2024-02-15T11:19:40;7.63;;;5.00;;
4575;SDS011;2300;51.874;8.430;2024-02-15T11:22:11;8.80;;;5.00;;
4575;SDS011;2300;51.874;8.430;2024-02-15T11:24:45;9.03;;;4.47;;
4575;SDS011;2300;51.874;8.430;2024-02-15T11:27:14;10.57;;;5.23;;
4575;SDS011;2300;51.874;8.430;2024-02-15T11:29:51;9.97;;;5.53;;
4575;SDS011;2300;51.874;8.430;2024-02-15T11:32:40;11.30;;;5.20;;
4575;SDS011;2300;51.874;8.430;2024-02-15T11:35:09;6.10;;;4.47;;
4575;SDS011;2300;51.874;8.430;2024-02-15T11:37:53;10.00;;;5.07;;
4575;SDS011;2300;51.874;8.430;2024-02-15T11:40:23;8.83;;;4.33;;
4575;SDS011;2300;51.874;8.430;2024-02-15T11:42:53;11.73;;;4.30;;
4575;SDS011;2300;51.874;8.430;2024-02-15T11:45:22;7.20;;;4.63;;
4575;SDS011;2300;51.874;8.430;2024-02-15T11:47:50;10.37;;;3.90;;
4575;SDS011;2300;51.874;8.430;2024-02-15T11:50:21;8.10;;;4.43;;
4575;SDS011;2300;51.874;8.430;2024-02-15T11:52:49;9.47;;;5.40;;
4575;SDS011;2300;51.874;8.430;2024-02-15T11:55:20;12.60;;;5.77;;
4575;SDS011;2300;51.874;8.430;2024-02-15T11:57:58;8.77;;;5.30;;
4575;SDS011;2300;51.874;8.430;2024-02-15T12:00:30;8.20;;;4.70;;
4575;SDS011;2300;51.874;8.430;2024-02-15T12:03:15;10.87;;;5.20;;
4575;SDS011;2300;51.874;8.430;2024-02-15T12:06:00;10.63;;;5.30;;
4575;SDS011;2300;51.874;8.430;2024-02-15T12:08:45;11.37;;;6.90;;
4575;SDS011;2300;51.874;8.430;2024-02-15T12:11:29;11.13;;;5.80;;
4575;SDS011;2300;51.874;8.430;2024-02-15T12:14:15;10.23;;;5.97;;
4575;SDS011;2300;51.874;8.430;2024-02-15T12:17:00;9.17;;;5.40;;
4575;SDS011;2300;51.874;8.430;2024-02-15T12:19:46;9.57;;;5.07;;
4575;SDS011;2300;51.874;8.430;2024-02-15T12:22:14;8.20;;;4.80;;
4575;SDS011;2300;51.874;8.430;2024-02-15T12:24:41;7.87;;;4.90;;
4575;SDS011;2300;51.874;8.430;2024-02-15T12:27:09;7.50;;;5.20;;
4575;SDS011;2300;51.874;8.430;2024-02-15T12:29:36;9.80;;;5.50;;
4575;SDS011;2300;51.874;8.430;2024-02-15T12:32:03;8.80;;;5.03;;
4575;SDS011;2300;51.874;8.430;2024-02-15T12:34:30;9.87;;;4.73;;
4575;SDS011;2300;51.874;8.430;2024-02-15T12:37:06;8.57;;;4.80;;
4575;SDS011;2300;51.874;8.430;2024-02-15T12:39:33;9.27;;;5.53;;
4575;SDS011;2300;51.874;8.430;2024-02-15T12:42:02;9.33;;;5.40;;
4575;SDS011;2300;51.874;8.430;2024-02-15T12:44:28;15.80;;;10.20;;
4575;SDS011;2300;51.874;8.430;2024-02-15T12:46:59;9.93;;;5.30;;
4575;SDS011;2300;51.874;8.430;2024-02-15T12:49:29;8.33;;;5.17;;
4575;SDS011;2300;51.874;8.430;2024-02-15T12:55:06;8.63;;;4.77;;
4575;SDS011;2300;51.874;8.430;2024-02-15T12:57:42;9.23;;;4.32;;
4575;SDS011;2300;51.874;8.430;2024-02-15T13:00:13;7.70;;;4.20;;
4575;SDS011;2300;51.874;8.430;2024-02-15T13:02:44;6.83;;;4.50;;
4575;SDS011;2300;51.874;8.430;2024-02-15T13:05:11;9.70;;;4.93;;
4575;SDS011;2300;51.874;8.430;2024-02-15T13:07:38;8.90;;;5.10;;
4575;SDS011;2300;51.874;8.430;2024-02-15T13:10:05;9.80;;;5.23;;
4575;SDS011;2300;51.874;8.430;2024-02-15T13:12:33;11.80;;;5.80;;
4575;SDS011;2300;51.874;8.430;2024-02-15T13:15:00;7.93;;;4.85;;
4575;SDS011;2300;51.874;8.430;2024-02-15T13:17:28;7.03;;;4.70;;
4575;SDS011;2300;51.874;8.430;2024-02-15T13:19:57;9.23;;;4.70;;
4575;SDS011;2300;51.874;8.430;2024-02-15T13:22:30;7.70;;;5.00;;
4575;SDS011;2300;51.874;8.430;2024-02-15T13:24:57;8.37;;;4.70;;
4575;SDS011;2300;51.874;8.430;2024-02-15T13:27:23;8.30;;;4.57;;
4575;SDS011;2300;51.874;8.430;2024-02-15T13:29:50;9.10;;;4.80;;
4575;SDS011;2300;51.874;8.430;2024-02-15T13:32:18;7.97;;;5.03;;
4575;SDS011;2300;51.874;8.430;2024-02-15T13:34:46;7.83;;;4.57;;
4575;SDS011;2300;51.874;8.430;2024-02-15T13:37:17;9.73;;;4.93;;
4575;SDS011;2300;51.874;8.430;2024-02-15T13:39:45;10.80;;;4.60;;
4575;SDS011;2300;51.874;8.430;2024-02-15T13:42:13;8.50;;;4.57;;
4575;SDS011;2300;51.874;8.430;2024-02-15T13:44:39;8.48;;;4.10;;
4575;SDS011;2300;51.874;8.430;2024-02-15T13:47:06;9.65;;;4.60;;
4575;SDS011;2300;51.874;8.430;2024-02-15T13:49:32;10.30;;;4.80;;
4575;SDS011;2300;51.874;8.430;2024-02-15T13:51:59;9.02;;;4.38;;
4575;SDS011;2300;51.874;8.430;2024-02-15T13:54:29;8.13;;;4.18;;
4575;SDS011;2300;51.874;8.430;2024-02-15T13:56:56;6.60;;;4.38;;
4575;SDS011;2300;51.874;8.430;2024-02-15T13:59:23;8.07;;;3.80;;
4575;SDS011;2300;51.874;8.430;2024-02-15T14:01:49;8.98;;;3.80;;
4575;SDS011;2300;51.874;8.430;2024-02-15T14:04:15;9.68;;;4.40;;
4575;SDS011;2300;51.874;8.430;2024-02-15T14:06:42;7.32;;;3.72;;
4575;SDS011;2300;51.874;8.430;2024-02-15T14:09:09;7.18;;;3.25;;
4575;SDS011;2300;51.874;8.430;2024-02-15T14:11:38;8.32;;;3.30;;
4575;SDS011;2300;51.874;8.430;2024-02-15T14:14:05;7.30;;;3.03;;
4575;SDS011;2300;51.874;8.430;2024-02-15T14:16:31;8.43;;;3.50;;
4575;SDS011;2300;51.874;8.430;2024-02-15T14:18:59;7.45;;;3.50;;
4575;SDS011;2300;51.874;8.430;2024-02-15T14:21:28;7.82;;;2.72;;
4575;SDS011;2300;51.874;8.430;2024-02-15T14:23:57;7.35;;;3.15;;
4575;SDS011;2300;51.874;8.430;2024-02-15T14:26:23;4.82;;;2.55;;
4575;SDS011;2300;51.874;8.430;2024-02-15T14:28:54;6.95;;;2.80;;
4575;SDS011;2300;51.874;8.430;2024-02-15T14:31:20;9.20;;;2.58;;
4575;SDS011;2300;51.874;8.430;2024-02-15T14:34:04;5.47;;;3.00;;
4575;SDS011;2300;51.874;8.430;2024-02-15T14:36:31;6.63;;;2.38;;
4575;SDS011;2300;51.874;8.430;2024-02-15T14:38:57;7.88;;;3.10;;
4575;SDS011;2300;51.874;8.430;2024-02-15T14:41:24;8.60;;;2.80;;
4575;SDS011;2300;51.874;8.430;2024-02-15T14:43:51;7.35;;;2.75;;
4575;SDS011;2300;51.874;8.430;2024-02-15T14:46:20;7.32;;;2.80;;
4575;SDS011;2300;51.874;8.430;2024-02-15T14:48:49;5.13;;;2.50;;
4575;SDS011;2300;51.874;8.430;2024-02-15T14:51:15;7.55;;;3.75;;
4575;SDS011;2300;51.874;8.430;2024-02-15T14:53:44;7.93;;;3.70;;
4575;SDS011;2300;51.874;8.430;2024-02-15T14:56:10;6.25;;;3.83;;
4575;SDS011;2300;51.874;8.430;2024-02-15T14:58:38;8.68;;;4.53;;
4575;SDS011;2300;51.874;8.430;2024-02-15T15:01:05;9.03;;;4.97;;
4575;SDS011;2300;51.874;8.430;2024-02-15T15:03:34;7.45;;;4.57;;
4575;SDS011;2300;51.874;8.430;2024-02-15T15:06:02;9.77;;;4.47;;
4575;SDS011;2300;51.874;8.430;2024-02-15T15:08:46;7.95;;;4.30;;